createdAt,value
2023-01-17T00:02:17.058Z,31.30
2023-01-17T00:05:02.515Z,30.90
2023-01-17T00:07:48.127Z,30.45
2023-01-17T00:10:18.500Z,29.08
2023-01-17T00:12:51.819Z,28.88
2023-01-17T00:15:20.258Z,30.27
2023-01-17T00:17:47.620Z,29.88
2023-01-17T00:20:34.455Z,28.30
2023-01-17T00:23:19.637Z,28.60
2023-01-17T00:26:04.867Z,28.87
2023-01-17T00:28:37.467Z,29.55
2023-01-17T00:31:05.312Z,28.23
2023-01-17T00:33:32.185Z,29.83
2023-01-17T00:36:00.871Z,29.90
2023-01-17T00:38:30.879Z,26.95
2023-01-17T00:41:09.805Z,26.83
2023-01-17T00:43:55.366Z,27.48
2023-01-17T00:46:41.064Z,27.48
2023-01-17T00:49:26.938Z,27.60
2023-01-17T00:52:12.735Z,28.83
2023-01-17T00:54:58.193Z,27.83
2023-01-17T00:57:43.587Z,29.58
2023-01-17T01:00:30.200Z,28.98
2023-01-17T01:03:15.568Z,28.42
2023-01-17T01:06:01.255Z,29.27
2023-01-17T01:08:48.244Z,28.42
2023-01-17T01:11:38.824Z,27.20
2023-01-17T01:14:25.561Z,27.10
2023-01-17T01:17:10.721Z,28.85
2023-01-17T01:19:56.311Z,28.67
2023-01-17T01:22:41.657Z,28.30
2023-01-17T01:25:27.667Z,29.60
2023-01-17T01:31:06.782Z,26.55
2023-01-17T01:33:33.731Z,27.92
2023-01-17T01:36:00.467Z,28.38
2023-01-17T01:38:27.258Z,26.35
2023-01-17T01:40:56.765Z,27.83
2023-01-17T01:43:52.843Z,27.77
2023-01-17T01:46:30.405Z,26.67
2023-01-17T01:49:02.068Z,27.33
2023-01-17T01:51:34.476Z,27.45
2023-01-17T01:54:11.130Z,28.65
2023-01-17T01:56:39.617Z,26.83
2023-01-17T01:59:11.078Z,26.33
2023-01-17T02:01:37.939Z,28.80
2023-01-17T02:04:09.971Z,28.42
2023-01-17T02:06:41.439Z,29.13
2023-01-17T02:09:10.863Z,27.48
2023-01-17T02:11:38.739Z,28.27
2023-01-17T02:14:05.989Z,28.15
2023-01-17T02:16:47.445Z,29.52
2023-01-17T02:19:51.076Z,28.60
2023-01-17T02:22:26.883Z,27.52
2023-01-17T02:25:21.967Z,28.73
2023-01-17T02:28:22.315Z,27.10
2023-01-17T02:30:57.136Z,26.60
2023-01-17T02:33:45.400Z,28.55
2023-01-17T02:36:35.280Z,27.27
2023-01-17T02:39:12.842Z,28.90
2023-01-17T02:41:42.639Z,28.08
2023-01-17T02:44:11.335Z,28.52
2023-01-17T02:46:55.791Z,27.13
2023-01-17T02:49:27.045Z,28.70
2023-01-17T02:52:14.897Z,27.60
2023-01-17T02:55:07.753Z,26.73
2023-01-17T02:58:02.588Z,27.10
2023-01-17T03:00:56.652Z,27.80
2023-01-17T03:03:46.961Z,27.50
2023-01-17T03:06:18.830Z,28.13
2023-01-17T03:08:48.523Z,28.45
2023-01-17T03:11:16.440Z,27.50
2023-01-17T03:13:43.232Z,28.60
2023-01-17T03:16:21.212Z,28.58
2023-01-17T03:18:49.254Z,28.35
2023-01-17T03:21:16.068Z,29.85
2023-01-17T03:23:42.859Z,30.80
2023-01-17T03:26:09.553Z,29.80
2023-01-17T03:28:36.328Z,30.75
2023-01-17T03:31:03.247Z,30.92
2023-01-17T03:33:30.108Z,32.25
2023-01-17T03:35:59.529Z,34.33
2023-01-17T03:38:27.572Z,34.60
2023-01-17T03:40:54.417Z,34.67
2023-01-17T03:43:21.221Z,35.22
2023-01-17T03:45:54.263Z,31.02
2023-01-17T03:48:21.704Z,33.45
2023-01-17T03:50:51.635Z,31.98
2023-01-17T03:53:18.655Z,32.22
2023-01-17T03:55:46.448Z,33.05
2023-01-17T03:58:13.197Z,30.83
2023-01-17T04:00:40.276Z,29.08
2023-01-17T04:03:07.008Z,32.40
2023-01-17T04:05:33.825Z,32.05
2023-01-17T04:08:01.035Z,32.28
2023-01-17T04:10:27.828Z,32.55
2023-01-17T04:12:54.577Z,33.60
2023-01-17T04:15:21.402Z,31.70
2023-01-17T04:17:48.161Z,33.50
2023-01-17T04:20:28.985Z,31.67
2023-01-17T04:22:55.825Z,31.38
2023-01-17T04:25:22.692Z,33.47
2023-01-17T04:27:49.705Z,33.22
2023-01-17T04:30:16.444Z,31.98
2023-01-17T04:32:43.252Z,32.80
2023-01-17T04:35:10.383Z,32.85
2023-01-17T04:37:37.562Z,32.25
2023-01-17T04:40:05.474Z,32.47
2023-01-17T04:42:32.310Z,33.28
2023-01-17T04:44:59.075Z,33.83
2023-01-17T04:47:25.804Z,33.05
2023-01-17T04:49:53.643Z,34.05
2023-01-17T04:52:20.790Z,34.00
2023-01-17T04:54:49.510Z,31.88
2023-01-17T04:57:17.260Z,31.63
2023-01-17T04:59:44.908Z,31.00
2023-01-17T05:02:12.276Z,33.22
2023-01-17T05:04:39.713Z,30.40
2023-01-17T05:07:06.934Z,31.20
2023-01-17T05:09:33.649Z,32.47
2023-01-17T05:12:00.388Z,30.85
2023-01-17T05:14:27.077Z,29.27
2023-01-17T05:16:58.106Z,32.13
2023-01-17T05:19:26.393Z,29.10
2023-01-17T05:21:53.378Z,31.10
2023-01-17T05:24:20.828Z,29.10
2023-01-17T05:26:55.001Z,30.15
2023-01-17T05:29:22.219Z,28.35
2023-01-17T05:31:49.015Z,29.55
2023-01-17T05:34:16.113Z,28.35
2023-01-17T05:36:42.843Z,29.25
2023-01-17T05:39:09.600Z,28.60
2023-01-17T05:41:36.332Z,29.48
2023-01-17T05:44:03.100Z,29.15
2023-01-17T05:46:30.197Z,27.35
2023-01-17T05:48:57.025Z,24.85
2023-01-17T05:51:23.868Z,25.77
2023-01-17T05:53:50.550Z,25.67
2023-01-17T05:56:17.360Z,26.33
2023-01-17T05:58:44.185Z,27.77
2023-01-17T06:01:11.175Z,28.02
2023-01-17T06:03:38.193Z,29.67
2023-01-17T06:06:04.988Z,29.17
2023-01-17T06:08:31.758Z,29.30
2023-01-17T06:11:01.585Z,30.92
2023-01-17T06:13:28.401Z,29.60
2023-01-17T06:15:57.651Z,28.85
2023-01-17T06:18:24.481Z,28.30
2023-01-17T06:20:55.128Z,29.33
2023-01-17T06:23:23.217Z,30.50
2023-01-17T06:25:50.122Z,30.35
2023-01-17T06:28:22.448Z,29.63
2023-01-17T06:30:49.754Z,30.63
2023-01-17T06:33:17.072Z,29.60
2023-01-17T06:35:51.502Z,28.52
2023-01-17T06:38:18.720Z,29.05
2023-01-17T06:40:45.599Z,29.55
2023-01-17T06:43:12.450Z,29.15
2023-01-17T06:45:39.669Z,30.33
2023-01-17T06:48:06.658Z,29.52
2023-01-17T06:50:34.095Z,28.33
2023-01-17T06:53:03.641Z,29.75
2023-01-17T06:55:33.628Z,29.85
2023-01-17T06:58:02.563Z,33.60
2023-01-17T07:00:30.887Z,30.73
2023-01-17T07:02:57.954Z,30.13
2023-01-17T07:05:24.810Z,30.23
2023-01-17T07:07:51.830Z,32.50
2023-01-17T07:10:18.622Z,31.10
2023-01-17T07:12:45.747Z,30.80
2023-01-17T07:15:13.152Z,29.45
2023-01-17T07:17:40.050Z,30.50
2023-01-17T07:20:07.607Z,32.67
2023-01-17T07:22:34.753Z,30.42
2023-01-17T07:25:01.487Z,31.45
2023-01-17T07:27:30.445Z,30.13
2023-01-17T07:29:58.027Z,30.33
2023-01-17T07:32:26.663Z,29.65
2023-01-17T07:34:54.416Z,29.80
2023-01-17T07:37:21.310Z,32.10
2023-01-17T07:39:48.120Z,30.38
2023-01-17T07:42:15.114Z,32.17
2023-01-17T07:44:44.083Z,28.52
2023-01-17T07:47:11.452Z,29.67
2023-01-17T07:49:38.304Z,29.23
2023-01-17T07:52:07.788Z,30.60
2023-01-17T07:54:34.593Z,29.83
2023-01-17T07:57:01.773Z,30.95
2023-01-17T07:59:28.554Z,30.58
2023-01-17T08:01:55.421Z,29.00
2023-01-17T08:04:26.017Z,31.20
2023-01-17T08:06:55.021Z,30.63
2023-01-17T08:09:21.959Z,28.45
2023-01-17T08:11:48.840Z,29.85
2023-01-17T08:14:15.719Z,32.80
2023-01-17T08:16:42.464Z,29.45
2023-01-17T08:19:10.074Z,30.58
2023-01-17T08:21:37.138Z,31.08
2023-01-17T08:24:04.231Z,31.80
2023-01-17T08:26:30.896Z,31.15
2023-01-17T08:29:02.170Z,30.60
2023-01-17T08:31:31.760Z,30.40
2023-01-17T08:33:58.561Z,30.63
2023-01-17T08:36:26.030Z,30.95
2023-01-17T08:38:53.499Z,30.35
2023-01-17T08:41:21.064Z,31.52
2023-01-17T08:43:52.090Z,30.10
2023-01-17T08:46:18.946Z,29.48
2023-01-17T08:48:45.982Z,31.35
2023-01-17T08:51:13.260Z,31.30
2023-01-17T08:53:40.670Z,30.05
2023-01-17T08:56:07.906Z,30.08
2023-01-17T08:58:36.005Z,29.35
2023-01-17T09:01:05.490Z,31.13
2023-01-17T09:03:33.792Z,29.55
2023-01-17T09:06:10.154Z,29.77
2023-01-17T09:08:37.306Z,30.92
2023-01-17T09:11:09.086Z,30.92
2023-01-17T09:13:36.314Z,33.08
2023-01-17T09:16:03.494Z,30.95
2023-01-17T09:18:31.992Z,31.60
2023-01-17T09:21:01.717Z,30.95
2023-01-17T09:23:30.163Z,30.80
2023-01-17T09:25:59.791Z,30.92
2023-01-17T09:28:27.906Z,31.17
2023-01-17T09:30:55.021Z,30.48
2023-01-17T09:33:24.388Z,30.50
2023-01-17T09:35:51.268Z,27.60
2023-01-17T09:38:17.994Z,28.17
2023-01-17T09:40:48.830Z,26.67
2023-01-17T09:43:44.206Z,25.55
2023-01-17T09:46:22.438Z,26.85
2023-01-17T09:48:56.463Z,25.92
2023-01-17T09:51:24.458Z,24.42
2023-01-17T09:53:52.235Z,24.45
2023-01-17T09:56:29.660Z,24.30
2023-01-17T09:59:08.508Z,25.02
2023-01-17T10:02:11.776Z,23.20
2023-01-17T10:05:05.883Z,23.73
2023-01-17T10:08:05.224Z,21.23
2023-01-17T10:11:01.030Z,19.52
2023-01-17T10:13:43.042Z,20.20
2023-01-17T10:16:33.879Z,20.23
2023-01-17T10:19:47.675Z,18.58
2023-01-17T10:22:38.323Z,18.27
2023-01-17T10:25:35.961Z,17.85
2023-01-17T10:28:17.388Z,19.77
2023-01-17T10:31:04.364Z,18.50
2023-01-17T10:33:57.254Z,17.95
2023-01-17T10:36:29.862Z,15.95
2023-01-17T10:39:04.378Z,15.18
2023-01-17T10:41:41.799Z,15.55
2023-01-17T10:44:38.861Z,14.18
2023-01-17T10:47:14.469Z,15.43
2023-01-17T10:52:30.716Z,12.45
2023-01-17T10:55:19.091Z,11.57
2023-01-17T10:57:48.691Z,11.95
2023-01-17T11:00:52.313Z,12.77
2023-01-17T11:03:20.927Z,12.20
2023-01-17T11:06:22.800Z,12.57
2023-01-17T11:08:53.068Z,10.38
2023-01-17T11:11:23.244Z,10.32
2023-01-17T11:13:52.001Z,11.02
2023-01-17T11:16:22.950Z,12.00
2023-01-17T11:19:10.277Z,10.68
2023-01-17T11:21:39.074Z,9.85
2023-01-17T11:24:20.404Z,9.63
2023-01-17T11:26:49.674Z,9.25
2023-01-17T11:29:32.100Z,8.52
2023-01-17T11:32:28.595Z,9.20
2023-01-17T11:35:19.950Z,10.05
2023-01-17T11:37:52.588Z,8.70
2023-01-17T11:40:25.336Z,7.32
2023-01-17T11:43:01.752Z,7.53
2023-01-17T11:45:31.352Z,7.57
2023-01-17T11:48:17.845Z,7.10
2023-01-17T11:50:55.492Z,6.88
2023-01-17T11:53:27.484Z,6.93
2023-01-17T11:56:09.121Z,5.82
2023-01-17T11:58:38.580Z,4.20
2023-01-17T12:01:35.978Z,4.90
2023-01-17T12:04:38.178Z,4.80
2023-01-17T12:07:48.335Z,4.43
2023-01-17T12:10:28.039Z,5.00
2023-01-17T12:13:53.183Z,5.68
2023-01-17T12:16:42.172Z,5.18
2023-01-17T12:19:43.577Z,5.35
2023-01-17T12:22:33.808Z,4.38
2023-01-17T12:25:29.165Z,4.68
2023-01-17T12:28:17.475Z,4.35
2023-01-17T12:30:44.269Z,4.15
2023-01-17T12:33:25.117Z,4.38
2023-01-17T12:35:56.135Z,5.30
2023-01-17T12:38:37.811Z,4.75
2023-01-17T12:41:18.012Z,4.10
2023-01-17T12:43:46.058Z,4.18
2023-01-17T12:46:23.988Z,4.47
2023-01-17T12:49:04.522Z,4.65
2023-01-17T12:51:37.310Z,4.65
2023-01-17T12:54:18.859Z,4.70
2023-01-17T12:56:56.439Z,4.38
2023-01-17T12:59:37.815Z,4.78
2023-01-17T13:02:35.581Z,5.18
2023-01-17T13:05:17.929Z,5.65
2023-01-17T13:08:02.411Z,5.53
2023-01-17T13:10:38.524Z,5.45
2023-01-17T13:13:20.223Z,6.38
2023-01-17T13:15:49.529Z,6.55
2023-01-17T13:18:23.020Z,6.80
2023-01-17T13:21:16.436Z,6.47
2023-01-17T13:23:56.402Z,6.07
2023-01-17T13:26:36.389Z,6.00
2023-01-17T13:29:23.481Z,5.70
2023-01-17T13:32:20.837Z,5.63
2023-01-17T13:34:56.409Z,6.30
2023-01-17T13:40:29.464Z,5.78
2023-01-17T13:42:58.594Z,6.00
2023-01-17T13:45:37.620Z,5.45
2023-01-17T13:48:16.301Z,5.60
2023-01-17T13:51:02.644Z,6.13
2023-01-17T13:53:39.415Z,5.90
2023-01-17T13:56:30.301Z,5.82
2023-01-17T13:59:02.215Z,6.28
2023-01-17T14:01:38.864Z,6.80
2023-01-17T14:04:07.043Z,5.32
2023-01-17T14:06:35.820Z,6.03
2023-01-17T14:09:08.459Z,6.40
2023-01-17T14:12:02.733Z,6.28
2023-01-17T14:14:42.118Z,5.93
2023-01-17T14:17:27.927Z,6.85
2023-01-17T14:20:09.776Z,6.10
2023-01-17T14:22:41.513Z,5.90
2023-01-17T14:25:19.777Z,5.28
2023-01-17T14:27:50.102Z,6.18
2023-01-17T14:30:17.405Z,5.20
2023-01-17T14:33:00.808Z,5.38
2023-01-17T14:35:36.806Z,4.88
2023-01-17T14:38:15.393Z,4.72
2023-01-17T14:40:53.074Z,5.30
2023-01-17T14:43:22.269Z,4.93
2023-01-17T14:45:49.462Z,5.72
2023-01-17T14:48:21.316Z,5.50
2023-01-17T14:50:50.591Z,5.10
2023-01-17T14:53:20.228Z,4.97
2023-01-17T14:55:59.292Z,4.93
2023-01-17T14:58:34.464Z,4.40
2023-01-17T15:01:03.012Z,4.57
2023-01-17T15:03:35.160Z,4.70
2023-01-17T15:06:23.453Z,4.80
2023-01-17T15:08:53.986Z,5.40
2023-01-17T15:11:27.161Z,4.57
2023-01-17T15:13:57.481Z,4.78
2023-01-17T15:16:27.238Z,5.20
2023-01-17T15:18:55.562Z,5.25
2023-01-17T15:21:26.182Z,5.07
2023-01-17T15:23:56.457Z,5.05
2023-01-17T15:26:30.094Z,5.30
2023-01-17T15:29:23.433Z,4.90
2023-01-17T15:31:53.975Z,4.72
2023-01-17T15:34:25.592Z,5.30
2023-01-17T15:36:52.918Z,5.10
2023-01-17T15:39:25.153Z,5.03
2023-01-17T15:41:54.520Z,4.63
2023-01-17T15:44:49.977Z,4.78
2023-01-17T15:47:38.812Z,5.33
2023-01-17T15:50:27.633Z,4.90
2023-01-17T15:52:55.681Z,5.05
2023-01-17T15:55:28.698Z,4.93
2023-01-17T15:57:55.633Z,5.07
2023-01-17T16:00:32.455Z,5.28
2023-01-17T16:02:59.752Z,4.55
2023-01-17T16:05:31.066Z,4.60
2023-01-17T16:08:02.594Z,5.15
2023-01-17T16:10:38.972Z,5.25
2023-01-17T16:13:08.015Z,5.22
2023-01-17T16:15:36.188Z,4.88
2023-01-17T16:18:07.476Z,5.05
2023-01-17T16:20:43.817Z,5.10
2023-01-17T16:23:11.026Z,4.43
2023-01-17T16:25:38.405Z,4.68
2023-01-17T16:28:06.058Z,4.32
2023-01-17T16:30:33.737Z,4.35
2023-01-17T16:33:00.454Z,4.82
2023-01-17T16:35:30.140Z,4.40
2023-01-17T16:38:02.302Z,4.85
2023-01-17T16:40:31.389Z,4.07
2023-01-17T16:42:59.958Z,5.63
2023-01-17T16:45:26.995Z,4.68
2023-01-17T16:47:54.504Z,4.90
2023-01-17T16:50:23.586Z,5.25
2023-01-17T16:52:54.560Z,4.60
2023-01-17T16:55:24.348Z,4.47
2023-01-17T16:57:54.143Z,4.00
2023-01-17T17:00:22.658Z,4.30
2023-01-17T17:02:53.809Z,4.80
2023-01-17T17:05:20.632Z,4.53
2023-01-17T17:07:50.783Z,4.70
2023-01-17T17:10:20.417Z,4.90
2023-01-17T17:12:47.467Z,4.80
2023-01-17T17:15:14.664Z,4.95
2023-01-17T17:17:43.221Z,4.68
2023-01-17T17:20:13.374Z,5.30
2023-01-17T17:22:43.085Z,4.78
2023-01-17T17:25:11.827Z,4.55
2023-01-17T17:27:38.840Z,4.70
2023-01-17T17:30:06.338Z,5.20
2023-01-17T17:32:33.398Z,4.72
2023-01-17T17:35:00.294Z,5.13
2023-01-17T17:37:29.104Z,4.97
2023-01-17T17:39:57.191Z,5.32
2023-01-17T17:42:24.175Z,6.22
2023-01-17T17:44:51.070Z,6.15
2023-01-17T17:47:17.925Z,4.78
2023-01-17T17:49:44.722Z,5.20
2023-01-17T17:52:11.619Z,5.70
2023-01-17T17:54:38.605Z,5.57
2023-01-17T17:57:05.437Z,5.30
2023-01-17T17:59:32.173Z,5.35
2023-01-17T18:01:59.911Z,5.50
2023-01-17T18:04:27.149Z,5.00
2023-01-17T18:06:58.161Z,5.20
2023-01-17T18:09:25.219Z,5.72
2023-01-17T18:11:52.040Z,5.97
2023-01-17T18:14:21.135Z,5.25
2023-01-17T18:16:48.496Z,5.88
2023-01-17T18:19:18.261Z,5.57
2023-01-17T18:21:45.438Z,5.68
2023-01-17T18:24:14.822Z,6.00
2023-01-17T18:26:46.421Z,6.22
2023-01-17T18:29:15.840Z,6.93
2023-01-17T18:31:44.520Z,7.53
2023-01-17T18:34:13.880Z,6.60
2023-01-17T18:36:41.178Z,6.78
2023-01-17T18:39:17.012Z,7.20
2023-01-17T18:41:43.827Z,6.50
2023-01-17T18:44:11.003Z,6.30
2023-01-17T18:46:38.610Z,7.03
2023-01-17T18:49:05.756Z,6.97
2023-01-17T18:51:34.394Z,6.80
2023-01-17T18:54:05.876Z,7.63
2023-01-17T18:56:36.583Z,7.95
2023-01-17T18:59:05.819Z,7.32
2023-01-17T19:01:35.824Z,8.07
2023-01-17T19:04:05.794Z,8.30
2023-01-17T19:06:35.459Z,8.38
2023-01-17T19:09:03.001Z,8.98
2023-01-17T19:11:30.378Z,8.82
2023-01-17T19:13:57.369Z,9.32
2023-01-17T19:16:30.069Z,10.13
2023-01-17T19:19:01.680Z,9.00
2023-01-17T19:21:29.158Z,9.20
2023-01-17T19:23:57.434Z,10.20
2023-01-17T19:26:27.217Z,9.18
2023-01-17T19:28:56.157Z,10.25
2023-01-17T19:31:27.846Z,9.52
2023-01-17T19:33:59.301Z,9.13
2023-01-17T19:36:29.363Z,9.80
2023-01-17T19:39:04.541Z,10.18
2023-01-17T19:41:34.051Z,9.88
2023-01-17T19:44:09.007Z,9.90
2023-01-17T19:46:37.690Z,9.55
2023-01-17T19:49:08.114Z,10.25
2023-01-17T19:51:35.050Z,9.88
2023-01-17T19:54:04.286Z,11.25
2023-01-17T19:56:31.263Z,10.43
2023-01-17T19:59:01.996Z,10.48
2023-01-17T20:01:31.814Z,10.07
2023-01-17T20:03:59.741Z,9.30
2023-01-17T20:06:29.925Z,10.27
2023-01-17T20:08:57.537Z,10.20
2023-01-17T20:11:25.753Z,9.88
2023-01-17T20:13:55.536Z,10.93
2023-01-17T20:16:23.662Z,9.95
2023-01-17T20:18:50.969Z,10.65
2023-01-17T20:21:20.153Z,11.30
2023-01-17T20:23:48.029Z,10.95
2023-01-17T20:26:17.866Z,12.45
2023-01-17T20:28:46.444Z,10.57
2023-01-17T20:31:21.758Z,11.73
2023-01-17T20:33:50.653Z,10.45
2023-01-17T20:36:19.103Z,11.93
2023-01-17T20:38:46.922Z,11.65
2023-01-17T20:41:21.805Z,11.23
2023-01-17T20:43:51.213Z,10.73
2023-01-17T20:46:19.513Z,10.85
2023-01-17T20:48:48.433Z,12.02
2023-01-17T20:51:15.740Z,11.73
2023-01-17T20:53:43.819Z,11.15
2023-01-17T20:56:12.853Z,11.52
2023-01-17T20:58:39.887Z,12.30
2023-01-17T21:01:09.171Z,11.07
2023-01-17T21:03:37.537Z,12.02
2023-01-17T21:06:07.437Z,11.68
2023-01-17T21:08:36.886Z,12.30
2023-01-17T21:11:05.044Z,12.98
2023-01-17T21:13:31.952Z,12.98
2023-01-17T21:15:58.991Z,11.95
2023-01-17T21:18:27.661Z,11.07
2023-01-17T21:20:54.478Z,12.10
2023-01-17T21:23:23.446Z,11.68
2023-01-17T21:25:56.743Z,12.25
2023-01-17T21:28:25.835Z,12.68
2023-01-17T21:30:53.332Z,12.10
2023-01-17T21:33:21.549Z,13.38
2023-01-17T21:35:48.379Z,14.88
2023-01-17T21:38:15.708Z,15.93
2023-01-17T21:40:43.897Z,15.68
2023-01-17T21:43:11.395Z,16.80
2023-01-17T21:45:39.195Z,18.77
2023-01-17T21:48:12.095Z,21.02
2023-01-17T21:50:39.096Z,21.75
2023-01-17T21:53:06.050Z,23.52
2023-01-17T21:55:51.818Z,23.42
2023-01-17T21:58:37.472Z,25.17
2023-01-17T22:01:21.685Z,25.10
2023-01-17T22:03:51.557Z,25.00
2023-01-17T22:06:19.655Z,26.73
2023-01-17T22:08:47.232Z,26.30
2023-01-17T22:11:19.038Z,27.10
2023-01-17T22:13:47.235Z,27.65
2023-01-17T22:16:16.240Z,27.90
2023-01-17T22:18:44.232Z,28.20
2023-01-17T22:21:13.670Z,29.63
2023-01-17T22:23:47.467Z,31.10
2023-01-17T22:26:14.553Z,31.77
2023-01-17T22:28:41.973Z,35.70
2023-01-17T22:31:23.378Z,37.17
2023-01-17T22:33:58.627Z,34.75
2023-01-17T22:36:26.302Z,36.88
2023-01-17T22:38:53.102Z,37.85
2023-01-17T22:41:23.167Z,36.25
2023-01-17T22:43:57.043Z,38.92
2023-01-17T22:46:27.813Z,37.15
2023-01-17T22:48:56.041Z,37.38
2023-01-17T22:51:24.418Z,38.08
2023-01-17T22:53:53.390Z,38.15
2023-01-17T22:56:28.127Z,38.42
2023-01-17T22:58:54.874Z,35.20
2023-01-17T23:01:30.239Z,33.85
2023-01-17T23:04:02.458Z,33.50
2023-01-17T23:06:37.613Z,32.63
2023-01-17T23:09:10.530Z,31.73
2023-01-17T23:11:43.610Z,30.83
2023-01-17T23:14:15.551Z,32.08
2023-01-17T23:17:15.177Z,31.35
2023-01-17T23:19:48.250Z,32.10
2023-01-17T23:22:23.627Z,32.88
2023-01-17T23:24:54.211Z,33.70
2023-01-17T23:27:53.174Z,32.35
2023-01-17T23:30:25.800Z,32.05
2023-01-17T23:32:58.854Z,34.60
2023-01-17T23:35:28.403Z,35.00
2023-01-17T23:38:14.499Z,37.13
2023-01-17T23:40:41.880Z,35.42
2023-01-17T23:43:24.524Z,36.72
2023-01-17T23:45:52.499Z,34.47
2023-01-17T23:48:20.658Z,34.90
2023-01-17T23:50:48.391Z,32.22
2023-01-17T23:53:22.350Z,33.45
2023-01-17T23:55:51.737Z,33.30
2023-01-17T23:58:20.084Z,32.00
